Time;durP1;ratioP1;P1;durP2;ratioP2;P2;SDS_P1;SDS_P2;PMS_P1;PMS_P2;Temp;Humidity;BMP_temperature;BMP_pressure;BME280_temperature;BME280_humidity;BME280_pressure;Samples;Min_cycle;Max_cycle;Signal;HPM_P1;HPM_P2
2023/05/27 00:01:06;;;;;;;20.50;9.20;;;;;;;-128.00;-1.00;-1.00;105461;1253;1004458;-78
2023/05/27 00:03:32;;;;;;;13.50;7.20;;;;;;;-128.00;-1.00;-1.00;105459;1253;1004578;-78
2023/05/27 00:06:00;;;;;;;14.30;9.00;;;;;;;-128.00;-1.00;-1.00;105474;1252;1003422;-79
2023/05/27 00:08:26;;;;;;;19.00;8.70;;;;;;;-128.00;-1.00;-1.00;105421;1253;1003333;-79
2023/05/27 00:10:53;;;;;;;23.40;8.30;;;;;;;-128.00;-1.00;-1.00;105481;1253;1004203;-79
2023/05/27 00:13:19;;;;;;;19.50;8.20;;;;;;;-128.00;-1.00;-1.00;105471;1253;1004302;-77
2023/05/27 00:15:46;;;;;;;14.10;8.40;;;;;;;-128.00;-1.00;-1.00;105475;1253;1003673;-77
2023/05/27 00:18:12;;;;;;;12.80;8.00;;;;;;;-128.00;-1.00;-1.00;105429;1253;1004716;-77
2023/05/27 00:20:39;;;;;;;16.80;8.40;;;;;;;-128.00;-1.00;-1.00;105459;1253;1005123;-78
2023/05/27 00:23:05;;;;;;;16.10;8.00;;;;;;;-128.00;-1.00;-1.00;105573;1253;1004980;-78
2023/05/27 00:25:32;;;;;;;14.70;7.50;;;;;;;-128.00;-1.00;-1.00;105681;1253;1004797;-77
2023/05/27 00:27:58;;;;;;;16.90;8.50;;;;;;;-128.00;-1.00;-1.00;105597;1253;1005010;-79
2023/05/27 00:30:25;;;;;;;23.70;8.70;;;;;;;-128.00;-1.00;-1.00;105666;1253;1003766;-77
2023/05/27 00:32:51;;;;;;;19.40;8.90;;;;;;;-128.00;-1.00;-1.00;105747;1251;1004199;-77
2023/05/27 00:35:18;;;;;;;20.40;8.30;;;;;;;-128.00;-1.00;-1.00;105781;1253;1003934;-79
2023/05/27 00:37:44;;;;;;;15.30;7.80;;;;;;;-128.00;-1.00;-1.00;105715;1253;1004662;-79
2023/05/27 00:40:11;;;;;;;14.10;7.90;;;;;;;-128.00;-1.00;-1.00;105718;1253;1004917;-77
2023/05/27 00:42:37;;;;;;;17.20;8.40;;;;;;;-128.00;-1.00;-1.00;105556;1253;1004151;-77
2023/05/27 00:45:04;;;;;;;15.20;8.00;;;;;;;-128.00;-1.00;-1.00;105506;1253;1004967;-79
2023/05/27 00:47:31;;;;;;;27.20;8.70;;;;;;;-128.00;-1.00;-1.00;105690;1254;1004611;-79
2023/05/27 00:49:57;;;;;;;15.00;7.20;;;;;;;-128.00;-1.00;-1.00;105574;1252;1004072;-79
2023/05/27 00:52:24;;;;;;;15.90;8.60;;;;;;;-128.00;-1.00;-1.00;105583;1253;1003242;-79
2023/05/27 00:54:51;;;;;;;20.10;8.30;;;;;;;-128.00;-1.00;-1.00;105665;1253;1005391;-77
2023/05/27 00:57:18;;;;;;;18.10;8.00;;;;;;;-128.00;-1.00;-1.00;105657;1252;1004117;-77
2023/05/27 00:59:45;;;;;;;14.40;7.60;;;;;;;-128.00;-1.00;-1.00;105695;1253;1003820;-79
2023/05/27 01:02:11;;;;;;;14.60;7.80;;;;;;;-128.00;-1.00;-1.00;105507;1253;1003514;-77
2023/05/27 01:04:38;;;;;;;16.60;8.60;;;;;;;-128.00;-1.00;-1.00;105494;1252;1003887;-77
2023/05/27 01:07:16;;;;;;;11.90;6.30;;;;;;;-128.00;-1.00;-1.00;105467;1252;1004042;-76
2023/05/27 01:09:55;;;;;;;13.70;6.90;;;;;;;-128.00;-1.00;-1.00;105471;1253;1046493;-77
2023/05/27 01:12:35;;;;;;;13.20;7.20;;;;;;;-128.00;-1.00;-1.00;105457;1253;1047085;-76
2023/05/27 01:15:02;;;;;;;13.00;6.90;;;;;;;-128.00;-1.00;-1.00;105334;1253;1060880;-79
2023/05/27 01:17:29;;;;;;;12.90;6.90;;;;;;;-128.00;-1.00;-1.00;105485;1253;1004517;-78
2023/05/27 01:19:56;;;;;;;14.90;7.70;;;;;;;-128.00;-1.00;-1.00;105423;1254;1003970;-77
2023/05/27 01:22:27;;;;;;;15.40;7.50;;;;;;;-128.00;-1.00;-1.00;105470;1253;1003810;-77
2023/05/27 01:24:53;;;;;;;14.20;6.80;;;;;;;-128.00;-1.00;-1.00;105493;1253;1046613;-79
2023/05/27 01:27:20;;;;;;;14.60;6.60;;;;;;;-128.00;-1.00;-1.00;105506;1252;1004699;-78
2023/05/27 01:29:47;;;;;;;13.40;7.00;;;;;;;-128.00;-1.00;-1.00;105509;1253;1004474;-77
2023/05/27 01:32:36;;;;;;;10.80;7.70;;;;;;;-128.00;-1.00;-1.00;105357;1253;1003616;-77
2023/05/27 01:35:32;;;;;;;11.60;7.00;;;;;;;-128.00;-1.00;-1.00;105367;1253;1047145;-77
2023/05/27 01:38:01;;;;;;;19.00;6.60;;;;;;;-128.00;-1.00;-1.00;105393;1253;1047775;-79
2023/05/27 01:40:28;;;;;;;14.50;6.30;;;;;;;-128.00;-1.00;-1.00;105394;1253;1062267;-77
2023/05/27 01:42:55;;;;;;;18.60;6.80;;;;;;;-128.00;-1.00;-1.00;105511;1253;1004447;-78
2023/05/27 01:45:21;;;;;;;16.90;6.30;;;;;;;-128.00;-1.00;-1.00;105342;1252;1003877;-77
2023/05/27 01:47:48;;;;;;;13.30;7.00;;;;;;;-128.00;-1.00;-1.00;105339;1257;1005442;-77
2023/05/27 01:50:14;;;;;;;15.90;7.90;;;;;;;-128.00;-1.00;-1.00;105349;1252;1004593;-78
2023/05/27 01:52:40;;;;;;;15.00;6.50;;;;;;;-128.00;-1.00;-1.00;105486;1253;1004165;-77
2023/05/27 01:55:07;;;;;;;14.30;7.10;;;;;;;-128.00;-1.00;-1.00;105466;1253;1004241;-78
2023/05/27 01:57:34;;;;;;;12.60;6.40;;;;;;;-128.00;-1.00;-1.00;105437;1254;1005150;-77
2023/05/27 02:00:00;;;;;;;12.20;6.30;;;;;;;-128.00;-1.00;-1.00;105472;1253;1003812;-77
2023/05/27 02:02:27;;;;;;;13.30;7.00;;;;;;;-128.00;-1.00;-1.00;105428;1256;1004512;-77
2023/05/27 02:04:53;;;;;;;11.40;7.00;;;;;;;-128.00;-1.00;-1.00;105430;1252;1004288;-79
2023/05/27 02:07:20;;;;;;;12.20;6.50;;;;;;;-128.00;-1.00;-1.00;105450;1254;1003404;-78
2023/05/27 02:09:46;;;;;;;18.60;6.20;;;;;;;-128.00;-1.00;-1.00;105458;1253;1004637;-77
2023/05/27 02:12:13;;;;;;;13.80;6.60;;;;;;;-128.00;-1.00;-1.00;105345;1254;1004986;-79
2023/05/27 02:14:40;;;;;;;11.90;6.50;;;;;;;-128.00;-1.00;-1.00;105483;1254;1003745;-78
2023/05/27 02:17:07;;;;;;;16.20;6.80;;;;;;;-128.00;-1.00;-1.00;105347;1253;1005010;-77
2023/05/27 02:19:34;;;;;;;18.60;7.70;;;;;;;-128.00;-1.00;-1.00;105458;1253;1004544;-78
2023/05/27 02:22:01;;;;;;;12.00;6.10;;;;;;;-128.00;-1.00;-1.00;105450;1254;1003707;-77
2023/05/27 02:24:27;;;;;;;14.00;6.60;;;;;;;-128.00;-1.00;-1.00;105442;1256;1003940;-79
2023/05/27 02:26:53;;;;;;;11.80;6.20;;;;;;;-128.00;-1.00;-1.00;105423;1256;1005045;-79
2023/05/27 02:29:20;;;;;;;12.90;6.90;;;;;;;-128.00;-1.00;-1.00;105644;1253;1004133;-77
2023/05/27 02:31:46;;;;;;;14.60;6.60;;;;;;;-128.00;-1.00;-1.00;105696;1253;1003889;-78
2023/05/27 02:34:12;;;;;;;15.40;6.70;;;;;;;-128.00;-1.00;-1.00;105708;1253;1005500;-77
2023/05/27 02:36:39;;;;;;;11.40;7.20;;;;;;;-128.00;-1.00;-1.00;105724;1253;1004646;-78
2023/05/27 02:39:05;;;;;;;12.90;6.20;;;;;;;-128.00;-1.00;-1.00;105722;1254;1005068;-77
2023/05/27 02:41:32;;;;;;;15.30;6.50;;;;;;;-128.00;-1.00;-1.00;105713;1252;1004127;-77
2023/05/27 02:43:58;;;;;;;9.60;6.40;;;;;;;-128.00;-1.00;-1.00;105474;1254;1004234;-77
2023/05/27 02:46:25;;;;;;;14.80;7.90;;;;;;;-128.00;-1.00;-1.00;105510;1253;1004021;-77
2023/05/27 02:48:51;;;;;;;14.90;6.90;;;;;;;-128.00;-1.00;-1.00;105535;1253;1005527;-77
2023/05/27 02:51:17;;;;;;;15.00;6.60;;;;;;;-128.00;-1.00;-1.00;105319;1254;1060580;-77
2023/05/27 02:53:44;;;;;;;12.50;6.80;;;;;;;-128.00;-1.00;-1.00;105475;1254;1004168;-79
2023/05/27 02:56:10;;;;;;;18.40;7.20;;;;;;;-128.00;-1.00;-1.00;105452;1253;1005837;-77
2023/05/27 02:58:36;;;;;;;11.10;6.10;;;;;;;-128.00;-1.00;-1.00;105469;1254;1003713;-78
2023/05/27 03:01:03;;;;;;;18.40;6.70;;;;;;;-128.00;-1.00;-1.00;105449;1254;1004094;-77
2023/05/27 03:03:29;;;;;;;19.00;6.80;;;;;;;-128.00;-1.00;-1.00;105424;1254;1004582;-78
2023/05/27 03:05:56;;;;;;;10.60;6.10;;;;;;;-128.00;-1.00;-1.00;105450;1253;1003761;-78
2023/05/27 03:08:22;;;;;;;13.20;7.20;;;;;;;-128.00;-1.00;-1.00;105654;1253;1004579;-76
2023/05/27 03:10:49;;;;;;;13.30;6.70;;;;;;;-128.00;-1.00;-1.00;105519;1253;1003913;-78
2023/05/27 03:13:16;;;;;;;11.30;6.40;;;;;;;-128.00;-1.00;-1.00;105654;1253;1003929;-78
2023/05/27 03:15:43;;;;;;;10.90;6.80;;;;;;;-128.00;-1.00;-1.00;105655;1253;1003724;-78
2023/05/27 03:18:09;;;;;;;12.70;6.20;;;;;;;-128.00;-1.00;-1.00;105582;1254;1006041;-78
2023/05/27 03:20:36;;;;;;;14.50;6.60;;;;;;;-128.00;-1.00;-1.00;105483;1254;1004003;-76
2023/05/27 03:23:02;;;;;;;12.40;6.80;;;;;;;-128.00;-1.00;-1.00;105392;1253;1004729;-78
2023/05/27 03:25:29;;;;;;;9.60;6.30;;;;;;;-128.00;-1.00;-1.00;105457;1253;1003855;-78
2023/05/27 03:27:55;;;;;;;13.40;6.50;;;;;;;-128.00;-1.00;-1.00;105654;1254;1004495;-78
2023/05/27 03:30:23;;;;;;;12.20;6.10;;;;;;;-128.00;-1.00;-1.00;105686;1253;1004043;-77
2023/05/27 03:32:49;;;;;;;18.10;6.50;;;;;;;-128.00;-1.00;-1.00;105679;1253;1003911;-78
2023/05/27 03:35:16;;;;;;;14.80;6.00;;;;;;;-128.00;-1.00;-1.00;105533;1254;1004336;-77
2023/05/27 03:37:42;;;;;;;12.30;6.60;;;;;;;-128.00;-1.00;-1.00;105523;1253;1004949;-78
2023/05/27 03:40:10;;;;;;;16.00;8.00;;;;;;;-128.00;-1.00;-1.00;105494;1253;1004762;-77
2023/05/27 03:42:36;;;;;;;18.10;8.50;;;;;;;-128.00;-1.00;-1.00;105759;1253;1003758;-77
2023/05/27 03:45:03;;;;;;;17.00;6.80;;;;;;;-128.00;-1.00;-1.00;105730;1253;1004098;-77
2023/05/27 03:47:29;;;;;;;15.40;5.90;;;;;;;-128.00;-1.00;-1.00;105683;1253;1004072;-78
2023/05/27 03:49:56;;;;;;;13.60;6.70;;;;;;;-128.00;-1.00;-1.00;105494;1254;1004084;-78
2023/05/27 03:52:22;;;;;;;13.40;6.50;;;;;;;-128.00;-1.00;-1.00;105417;1254;1004456;-79
2023/05/27 03:54:48;;;;;;;15.50;7.40;;;;;;;-128.00;-1.00;-1.00;105432;1254;1004787;-77
2023/05/27 03:57:15;;;;;;;18.50;7.40;;;;;;;-128.00;-1.00;-1.00;105426;1254;1005079;-77
2023/05/27 03:59:42;;;;;;;17.40;7.10;;;;;;;-128.00;-1.00;-1.00;105412;1253;1004176;-78
2023/05/27 04:02:08;;;;;;;15.60;6.90;;;;;;;-128.00;-1.00;-1.00;105489;1254;1005935;-78
2023/05/27 04:04:35;;;;;;;17.90;6.70;;;;;;;-128.00;-1.00;-1.00;105422;1254;1004170;-78
2023/05/27 04:07:01;;;;;;;18.50;7.30;;;;;;;-128.00;-1.00;-1.00;105437;1254;1003759;-77
2023/05/27 04:09:27;;;;;;;18.20;6.90;;;;;;;-128.00;-1.00;-1.00;105441;1253;1005539;-77
2023/05/27 04:11:54;;;;;;;10.30;6.70;;;;;;;-128.00;-1.00;-1.00;105423;1254;1004328;-79
2023/05/27 04:14:21;;;;;;;15.80;6.70;;;;;;;-128.00;-1.00;-1.00;105469;1254;1004913;-78
2023/05/27 04:16:48;;;;;;;18.90;9.00;;;;;;;-128.00;-1.00;-1.00;105453;1254;1004750;-77
2023/05/27 04:19:14;;;;;;;13.80;7.70;;;;;;;-128.00;-1.00;-1.00;105340;1253;1004612;-77
2023/05/27 04:21:41;;;;;;;9.70;7.00;;;;;;;-128.00;-1.00;-1.00;105414;1253;1003982;-79
2023/05/27 04:24:08;;;;;;;11.20;6.80;;;;;;;-128.00;-1.00;-1.00;105469;1254;1004953;-77
2023/05/27 04:26:34;;;;;;;12.50;6.90;;;;;;;-128.00;-1.00;-1.00;105447;1252;1003772;-79
2023/05/27 04:29:01;;;;;;;15.20;7.00;;;;;;;-128.00;-1.00;-1.00;105447;1253;1004770;-76
2023/05/27 04:31:28;;;;;;;18.00;7.40;;;;;;;-128.00;-1.00;-1.00;105463;1254;1005003;-79
2023/05/27 04:33:55;;;;;;;16.10;8.10;;;;;;;-128.00;-1.00;-1.00;105454;1254;1004159;-79
2023/05/27 04:36:25;;;;;;;19.00;6.80;;;;;;;-128.00;-1.00;-1.00;105308;1253;1005473;-77
2023/05/27 04:38:51;;;;;;;14.40;6.70;;;;;;;-128.00;-1.00;-1.00;105463;1253;1046545;-77
2023/05/27 04:41:20;;;;;;;12.80;7.60;;;;;;;-128.00;-1.00;-1.00;105433;1253;1003972;-77
2023/05/27 04:43:47;;;;;;;15.10;8.70;;;;;;;-128.00;-1.00;-1.00;105458;1254;1057840;-79
2023/05/27 04:46:14;;;;;;;11.20;6.60;;;;;;;-128.00;-1.00;-1.00;105406;1254;1004712;-77
2023/05/27 04:48:40;;;;;;;13.40;7.20;;;;;;;-128.00;-1.00;-1.00;105280;1254;1004121;-78
2023/05/27 04:51:07;;;;;;;24.10;11.50;;;;;;;-128.00;-1.00;-1.00;105391;1254;1006094;-79
2023/05/27 04:53:34;;;;;;;13.70;8.70;;;;;;;-128.00;-1.00;-1.00;105396;1254;1004553;-79
2023/05/27 04:56:00;;;;;;;17.50;9.30;;;;;;;-128.00;-1.00;-1.00;105375;1254;1005218;-79
2023/05/27 04:58:28;;;;;;;14.50;7.40;;;;;;;-128.00;-1.00;-1.00;105396;1254;1004737;-79
2023/05/27 05:00:56;;;;;;;13.90;7.60;;;;;;;-128.00;-1.00;-1.00;105345;1254;1004381;-77
2023/05/27 05:03:36;;;;;;;17.30;8.50;;;;;;;-128.00;-1.00;-1.00;105476;1254;1048312;-77
2023/05/27 05:06:03;;;;;;;18.50;7.70;;;;;;;-128.00;-1.00;-1.00;105216;1254;1061660;-77
2023/05/27 05:08:30;;;;;;;15.30;7.20;;;;;;;-128.00;-1.00;-1.00;105130;1261;1003519;-79
2023/05/27 05:10:56;;;;;;;15.40;8.20;;;;;;;-128.00;-1.00;-1.00;105391;1253;1004578;-76
2023/05/27 05:13:23;;;;;;;15.10;9.50;;;;;;;-128.00;-1.00;-1.00;105430;1254;1004713;-77
2023/05/27 05:15:50;;;;;;;13.00;6.50;;;;;;;-128.00;-1.00;-1.00;105429;1253;1005761;-77
2023/05/27 05:18:16;;;;;;;16.90;10.50;;;;;;;-128.00;-1.00;-1.00;105455;1253;1004520;-78
2023/05/27 05:20:43;;;;;;;13.90;6.40;;;;;;;-128.00;-1.00;-1.00;105334;1254;1004601;-77
2023/05/27 05:23:09;;;;;;;17.60;9.10;;;;;;;-128.00;-1.00;-1.00;105434;1254;1004488;-79
2023/05/27 05:25:37;;;;;;;15.40;8.20;;;;;;;-128.00;-1.00;-1.00;105437;1253;1004090;-77
2023/05/27 05:28:05;;;;;;;23.80;9.40;;;;;;;-128.00;-1.00;-1.00;105470;1253;1003334;-77
2023/05/27 05:30:31;;;;;;;21.00;8.40;;;;;;;-128.00;-1.00;-1.00;105473;1254;1005262;-79
2023/05/27 05:32:58;;;;;;;13.20;7.20;;;;;;;-128.00;-1.00;-1.00;105529;1254;1004265;-79
2023/05/27 05:35:25;;;;;;;15.20;7.60;;;;;;;-128.00;-1.00;-1.00;105495;1254;1004767;-77
2023/05/27 05:37:52;;;;;;;10.80;6.70;;;;;;;-128.00;-1.00;-1.00;105526;1253;1004107;-77
2023/05/27 05:40:18;;;;;;;16.70;7.60;;;;;;;-128.00;-1.00;-1.00;105473;1253;1005109;-77
2023/05/27 05:42:45;;;;;;;17.20;7.70;;;;;;;-128.00;-1.00;-1.00;105551;1252;1004046;-77
2023/05/27 05:45:12;;;;;;;21.50;8.80;;;;;;;-128.00;-1.00;-1.00;105514;1251;1004090;-77
2023/05/27 05:47:39;;;;;;;12.70;7.10;;;;;;;-128.00;-1.00;-1.00;105311;1258;1005503;-77
2023/05/27 05:50:05;;;;;;;11.00;5.80;;;;;;;-128.00;-1.00;-1.00;105503;1253;1003991;-79
2023/05/27 05:52:32;;;;;;;10.60;6.30;;;;;;;-128.00;-1.00;-1.00;105499;1252;1003489;-77
2023/05/27 05:54:58;;;;;;;14.80;6.70;;;;;;;-128.00;-1.00;-1.00;105521;1254;1003484;-77
2023/05/27 05:57:25;;;;;;;12.70;6.60;;;;;;;-128.00;-1.00;-1.00;105531;1254;1003866;-77
2023/05/27 05:59:51;;;;;;;10.10;6.40;;;;;;;-128.00;-1.00;-1.00;105478;1254;1003534;-77
2023/05/27 06:02:18;;;;;;;14.30;6.90;;;;;;;-128.00;-1.00;-1.00;105521;1253;1003525;-77
2023/05/27 06:04:44;;;;;;;14.90;5.60;;;;;;;-128.00;-1.00;-1.00;105542;1254;1004405;-79
2023/05/27 06:07:10;;;;;;;15.80;6.50;;;;;;;-128.00;-1.00;-1.00;105517;1254;1004754;-77
2023/05/27 06:09:37;;;;;;;13.80;6.40;;;;;;;-128.00;-1.00;-1.00;105546;1254;1004459;-78
2023/05/27 06:12:04;;;;;;;14.70;5.50;;;;;;;-128.00;-1.00;-1.00;105391;1253;1005977;-77
2023/05/27 06:14:30;;;;;;;15.90;6.10;;;;;;;-128.00;-1.00;-1.00;105319;1254;1004222;-77
2023/05/27 06:16:57;;;;;;;19.00;7.00;;;;;;;-128.00;-1.00;-1.00;105311;1253;1004588;-79
2023/05/27 06:19:23;;;;;;;16.10;8.00;;;;;;;-128.00;-1.00;-1.00;105348;1253;1003608;-79
2023/05/27 06:21:49;;;;;;;14.70;6.80;;;;;;;-128.00;-1.00;-1.00;105372;1254;1004573;-79
2023/05/27 06:24:16;;;;;;;15.70;5.20;;;;;;;-128.00;-1.00;-1.00;105311;1254;1004467;-78
2023/05/27 06:26:42;;;;;;;14.50;6.10;;;;;;;-128.00;-1.00;-1.00;105324;1254;1004373;-78
2023/05/27 06:29:09;;;;;;;10.40;5.40;;;;;;;-128.00;-1.00;-1.00;105337;1257;1004224;-79
2023/05/27 06:31:35;;;;;;;12.20;5.80;;;;;;;-128.00;-1.00;-1.00;105451;1254;1003536;-77
2023/05/27 06:34:02;;;;;;;11.70;5.80;;;;;;;-128.00;-1.00;-1.00;105468;1253;1005126;-79
2023/05/27 06:36:28;;;;;;;12.90;6.30;;;;;;;-128.00;-1.00;-1.00;105452;1253;1004751;-77
2023/05/27 06:38:55;;;;;;;16.30;5.90;;;;;;;-128.00;-1.00;-1.00;105492;1256;1003944;-80
2023/05/27 06:41:22;;;;;;;16.90;6.10;;;;;;;-128.00;-1.00;-1.00;105479;1256;1004062;-79
2023/05/27 06:43:49;;;;;;;16.70;5.80;;;;;;;-128.00;-1.00;-1.00;105491;1254;1004546;-77
2023/05/27 06:46:15;;;;;;;19.30;6.80;;;;;;;-128.00;-1.00;-1.00;105578;1253;1004425;-79
2023/05/27 06:48:41;;;;;;;14.50;6.40;;;;;;;-128.00;-1.00;-1.00;105437;1253;1004325;-77
2023/05/27 06:51:08;;;;;;;13.80;5.80;;;;;;;-128.00;-1.00;-1.00;105389;1256;1004382;-79
2023/05/27 06:53:34;;;;;;;11.00;6.10;;;;;;;-128.00;-1.00;-1.00;105354;1254;1004465;-77
2023/05/27 06:56:01;;;;;;;12.70;6.30;;;;;;;-128.00;-1.00;-1.00;105365;1254;1005016;-79
2023/05/27 06:58:27;;;;;;;16.90;6.00;;;;;;;-128.00;-1.00;-1.00;105338;1257;1003711;-77
2023/05/27 07:00:54;;;;;;;12.40;6.40;;;;;;;-128.00;-1.00;-1.00;105331;1254;1004934;-78
2023/05/27 07:03:20;;;;;;;14.60;5.50;;;;;;;-128.00;-1.00;-1.00;105376;1256;1004741;-79
2023/05/27 07:05:47;;;;;;;21.80;6.10;;;;;;;-128.00;-1.00;-1.00;105395;1254;1005114;-80
2023/05/27 07:08:14;;;;;;;13.80;5.70;;;;;;;-128.00;-1.00;-1.00;105373;1253;1005749;-77
2023/05/27 07:10:40;;;;;;;17.60;6.00;;;;;;;-128.00;-1.00;-1.00;105330;1253;1004831;-80
2023/05/27 07:13:07;;;;;;;14.70;5.00;;;;;;;-128.00;-1.00;-1.00;105373;1254;1004111;-79
2023/05/27 07:15:33;;;;;;;13.10;5.20;;;;;;;-128.00;-1.00;-1.00;105276;1254;1006568;-79
2023/05/27 07:18:00;;;;;;;22.60;7.00;;;;;;;-128.00;-1.00;-1.00;105388;1254;1003269;-77
2023/05/27 07:20:26;;;;;;;20.40;6.40;;;;;;;-128.00;-1.00;-1.00;105379;1254;1004006;-80
2023/05/27 07:22:52;;;;;;;10.80;5.00;;;;;;;-128.00;-1.00;-1.00;105361;1254;1007023;-80
2023/05/27 07:25:19;;;;;;;13.90;5.20;;;;;;;-128.00;-1.00;-1.00;105358;1257;1004472;-77
2023/05/27 07:27:46;;;;;;;13.10;4.60;;;;;;;-128.00;-1.00;-1.00;105381;1254;1003903;-78
2023/05/27 07:30:12;;;;;;;12.40;5.70;;;;;;;-128.00;-1.00;-1.00;105378;1254;1005000;-77
2023/05/27 07:32:39;;;;;;;15.40;6.90;;;;;;;-128.00;-1.00;-1.00;105475;1254;1004214;-80
2023/05/27 07:35:06;;;;;;;15.90;5.70;;;;;;;-128.00;-1.00;-1.00;105485;1254;1004640;-78
2023/05/27 07:37:32;;;;;;;21.30;6.70;;;;;;;-128.00;-1.00;-1.00;105497;1253;1004339;-80
2023/05/27 07:39:58;;;;;;;14.40;5.00;;;;;;;-128.00;-1.00;-1.00;105472;1255;1004449;-80
2023/05/27 07:42:25;;;;;;;10.80;4.90;;;;;;;-128.00;-1.00;-1.00;105404;1254;1005680;-80
2023/05/27 07:44:51;;;;;;;27.20;5.50;;;;;;;-128.00;-1.00;-1.00;105365;1254;1005022;-80
2023/05/27 07:47:18;;;;;;;16.50;5.70;;;;;;;-128.00;-1.00;-1.00;105457;1253;1004184;-80
2023/05/27 07:49:44;;;;;;;13.50;4.30;;;;;;;-128.00;-1.00;-1.00;105418;1254;1004125;-78
2023/05/27 07:52:10;;;;;;;14.10;4.30;;;;;;;-128.00;-1.00;-1.00;105500;1253;1006218;-80
2023/05/27 07:54:37;;;;;;;8.60;4.40;;;;;;;-128.00;-1.00;-1.00;105444;1254;1004537;-78
2023/05/27 07:57:06;;;;;;;11.60;3.90;;;;;;;-128.00;-1.00;-1.00;105451;1254;1003906;-80
2023/05/27 07:59:32;;;;;;;20.50;5.50;;;;;;;-128.00;-1.00;-1.00;105298;1257;1059113;-78
2023/05/27 08:01:59;;;;;;;15.40;4.80;;;;;;;-128.00;-1.00;-1.00;105396;1255;1004429;-80
2023/05/27 08:04:25;;;;;;;14.90;5.50;;;;;;;-128.00;-1.00;-1.00;105338;1254;1003768;-80
2023/05/27 08:06:52;;;;;;;14.60;4.90;;;;;;;-128.00;-1.00;-1.00;105412;1254;1003430;-80
2023/05/27 08:09:18;;;;;;;12.90;4.80;;;;;;;-128.00;-1.00;-1.00;105285;1255;1004418;-80
2023/05/27 08:11:45;;;;;;;11.20;4.80;;;;;;;-128.00;-1.00;-1.00;105378;1254;1004747;-80
2023/05/27 08:14:12;;;;;;;16.00;4.60;;;;;;;-128.00;-1.00;-1.00;105343;1254;1003949;-81
2023/05/27 08:16:39;;;;;;;18.90;5.10;;;;;;;-128.00;-1.00;-1.00;105368;1253;1003854;-78
2023/05/27 08:19:05;;;;;;;14.90;4.80;;;;;;;-128.00;-1.00;-1.00;105364;1253;1004283;-78
2023/05/27 08:21:32;;;;;;;13.10;4.60;;;;;;;-128.00;-1.00;-1.00;105343;1253;1003494;-81
2023/05/27 08:23:58;;;;;;;17.20;5.50;;;;;;;-128.00;-1.00;-1.00;105341;1253;1004323;-78
2023/05/27 08:26:26;;;;;;;20.50;8.50;;;;;;;-128.00;-1.00;-1.00;105244;1254;1004579;-78
2023/05/27 08:28:53;;;;;;;13.10;4.90;;;;;;;-128.00;-1.00;-1.00;105429;1254;1004408;-78
2023/05/27 08:31:19;;;;;;;19.40;5.00;;;;;;;-128.00;-1.00;-1.00;105437;1254;1004119;-80
2023/05/27 08:33:46;;;;;;;12.50;4.20;;;;;;;-128.00;-1.00;-1.00;105424;1252;1004688;-78
2023/05/27 08:36:14;;;;;;;11.60;4.40;;;;;;;-128.00;-1.00;-1.00;105435;1255;1005374;-78
2023/05/27 08:38:41;;;;;;;14.10;4.80;;;;;;;-128.00;-1.00;-1.00;105542;1253;1059125;-80
2023/05/27 08:41:07;;;;;;;15.80;4.80;;;;;;;-128.00;-1.00;-1.00;105427;1254;1004249;-79
2023/05/27 08:43:34;;;;;;;23.00;5.60;;;;;;;-128.00;-1.00;-1.00;105407;1253;1003811;-79
2023/05/27 08:46:01;;;;;;;10.80;3.90;;;;;;;-128.00;-1.00;-1.00;105425;1254;1003680;-81
2023/05/27 08:48:27;;;;;;;12.40;4.30;;;;;;;-128.00;-1.00;-1.00;105401;1253;1004724;-81
2023/05/27 08:50:54;;;;;;;20.80;10.70;;;;;;;-128.00;-1.00;-1.00;105337;1254;1006047;-79
2023/05/27 08:53:20;;;;;;;15.90;5.10;;;;;;;-128.00;-1.00;-1.00;105427;1253;1004004;-81
2023/05/27 08:55:48;;;;;;;20.90;5.10;;;;;;;-128.00;-1.00;-1.00;105171;1251;1005630;-78
2023/05/27 08:58:14;;;;;;;11.20;5.20;;;;;;;-128.00;-1.00;-1.00;105384;1254;1004183;-81
2023/05/27 09:00:41;;;;;;;11.20;4.20;;;;;;;-128.00;-1.00;-1.00;105293;1254;1004607;-81
2023/05/27 09:03:08;;;;;;;13.30;4.30;;;;;;;-128.00;-1.00;-1.00;105295;1254;1004951;-78
2023/05/27 09:05:34;;;;;;;12.70;4.90;;;;;;;-128.00;-1.00;-1.00;105159;1253;1004588;-78
2023/05/27 09:08:01;;;;;;;11.20;3.90;;;;;;;-128.00;-1.00;-1.00;105456;1254;1004861;-81
2023/05/27 09:10:37;;;;;;;13.10;4.80;;;;;;;-128.00;-1.00;-1.00;105463;1253;1004200;-82
2023/05/27 09:13:04;;;;;;;12.50;4.60;;;;;;;-128.00;-1.00;-1.00;105386;1253;1058499;-79
2023/05/27 09:15:31;;;;;;;14.50;4.40;;;;;;;-128.00;-1.00;-1.00;105490;1254;1004551;-81
2023/05/27 09:17:58;;;;;;;15.60;4.40;;;;;;;-128.00;-1.00;-1.00;105415;1254;1004480;-81
2023/05/27 09:20:26;;;;;;;13.80;5.80;;;;;;;-128.00;-1.00;-1.00;105326;1254;1004256;-80
2023/05/27 09:23:03;;;;;;;12.50;5.10;;;;;;;-128.00;-1.00;-1.00;105541;1254;1005154;-78
2023/05/27 09:25:29;;;;;;;15.00;4.20;;;;;;;-128.00;-1.00;-1.00;105407;1253;1057907;-78
2023/05/27 09:27:58;;;;;;;8.60;3.70;;;;;;;-128.00;-1.00;-1.00;105496;1254;1059817;-79
2023/05/27 09:30:26;;;;;;;15.10;4.40;;;;;;;-128.00;-1.00;-1.00;105463;1254;1004022;-81
2023/05/27 09:33:00;;;;;;;11.80;4.30;;;;;;;-128.00;-1.00;-1.00;105431;1254;1047507;-80
2023/05/27 09:35:27;;;;;;;8.10;4.30;;;;;;;-128.00;-1.00;-1.00;105323;1254;1062124;-80
2023/05/27 09:37:53;;;;;;;13.10;6.00;;;;;;;-128.00;-1.00;-1.00;105504;1253;1003879;-80
2023/05/27 09:40:20;;;;;;;13.00;4.90;;;;;;;-128.00;-1.00;-1.00;105440;1254;1004546;-81
2023/05/27 09:42:47;;;;;;;9.80;4.10;;;;;;;-128.00;-1.00;-1.00;105498;1253;1003966;-81
2023/05/27 09:45:18;;;;;;;12.60;4.10;;;;;;;-128.00;-1.00;-1.00;105411;1254;1005141;-80
2023/05/27 09:47:49;;;;;;;10.60;3.80;;;;;;;-128.00;-1.00;-1.00;105464;1254;1061840;-81
2023/05/27 09:50:16;;;;;;;10.00;3.70;;;;;;;-128.00;-1.00;-1.00;105429;1254;1058146;-79
2023/05/27 09:52:46;;;;;;;10.50;4.20;;;;;;;-128.00;-1.00;-1.00;105455;1253;1004159;-81
2023/05/27 09:55:13;;;;;;;11.10;4.20;;;;;;;-128.00;-1.00;-1.00;105393;1253;1045630;-79
2023/05/27 09:57:40;;;;;;;13.10;4.30;;;;;;;-128.00;-1.00;-1.00;105478;1254;1004115;-79
2023/05/27 10:00:17;;;;;;;12.60;4.20;;;;;;;-128.00;-1.00;-1.00;105453;1253;1005449;-81
2023/05/27 10:02:46;;;;;;;14.10;4.40;;;;;;;-128.00;-1.00;-1.00;105518;1254;1058293;-81
2023/05/27 10:05:15;;;;;;;9.60;4.10;;;;;;;-128.00;-1.00;-1.00;105418;1254;1058771;-79
2023/05/27 10:07:43;;;;;;;12.00;4.10;;;;;;;-128.00;-1.00;-1.00;105162;1254;1046329;-81
2023/05/27 10:10:14;;;;;;;11.30;3.80;;;;;;;-128.00;-1.00;-1.00;105471;1254;1003756;-78
2023/05/27 10:12:42;;;;;;;10.30;4.30;;;;;;;-128.00;-1.00;-1.00;105274;1254;1061907;-80
2023/05/27 10:15:09;;;;;;;13.00;4.00;;;;;;;-128.00;-1.00;-1.00;105418;1253;1004290;-79
2023/05/27 10:17:43;;;;;;;11.30;4.00;;;;;;;-128.00;-1.00;-1.00;105393;1254;1004974;-80
2023/05/27 10:20:09;;;;;;;19.30;4.80;;;;;;;-128.00;-1.00;-1.00;105423;1254;1045385;-79
2023/05/27 10:22:43;;;;;;;8.60;4.20;;;;;;;-128.00;-1.00;-1.00;105508;1251;1004260;-81
2023/05/27 10:25:13;;;;;;;9.10;3.70;;;;;;;-128.00;-1.00;-1.00;105553;1254;1062174;-80
2023/05/27 10:27:45;;;;;;;6.90;3.40;;;;;;;-128.00;-1.00;-1.00;105467;1254;1058615;-81
2023/05/27 10:30:15;;;;;;;9.60;4.40;;;;;;;-128.00;-1.00;-1.00;105406;1253;1060390;-81
2023/05/27 10:32:48;;;;;;;8.50;3.80;;;;;;;-128.00;-1.00;-1.00;105447;1253;1044538;-79
2023/05/27 10:35:18;;;;;;;8.40;3.50;;;;;;;-128.00;-1.00;-1.00;105460;1254;1046968;-79
2023/05/27 10:37:46;;;;;;;14.00;4.30;;;;;;;-128.00;-1.00;-1.00;105405;1253;1061739;-78
2023/05/27 10:40:12;;;;;;;10.70;4.20;;;;;;;-128.00;-1.00;-1.00;105436;1253;1004854;-81
2023/05/27 10:42:38;;;;;;;10.10;4.00;;;;;;;-128.00;-1.00;-1.00;105468;1253;1004368;-79
2023/05/27 10:45:10;;;;;;;13.30;6.50;;;;;;;-128.00;-1.00;-1.00;105376;1254;1004969;-81
2023/05/27 10:47:37;;;;;;;6.40;3.20;;;;;;;-128.00;-1.00;-1.00;105470;1252;1047652;-79
2023/05/27 10:50:13;;;;;;;13.10;5.00;;;;;;;-128.00;-1.00;-1.00;105415;1253;1004311;-79
2023/05/27 10:52:40;;;;;;;11.40;4.10;;;;;;;-128.00;-1.00;-1.00;105434;1253;1057952;-79
2023/05/27 10:55:07;;;;;;;10.60;3.80;;;;;;;-128.00;-1.00;-1.00;105434;1254;1004954;-79
2023/05/27 10:57:34;;;;;;;8.30;4.10;;;;;;;-128.00;-1.00;-1.00;105404;1253;1005229;-79
2023/05/27 11:00:08;;;;;;;9.60;4.00;;;;;;;-128.00;-1.00;-1.00;105541;1253;1004561;-81
2023/05/27 11:02:38;;;;;;;9.40;3.40;;;;;;;-128.00;-1.00;-1.00;105379;1254;1062064;-81
2023/05/27 11:05:09;;;;;;;6.70;3.80;;;;;;;-128.00;-1.00;-1.00;105394;1254;1058229;-81
2023/05/27 11:07:37;;;;;;;9.60;3.80;;;;;;;-128.00;-1.00;-1.00;105388;1253;1060810;-81
2023/05/27 11:10:06;;;;;;;11.90;3.90;;;;;;;-128.00;-1.00;-1.00;105389;1254;1003768;-79